createdAt,value
2023-03-17T00:01:41.672Z,104.60
2023-03-17T00:04:25.365Z,104.60
2023-03-17T00:07:19.406Z,112.40
2023-03-17T00:10:17.757Z,105.60
2023-03-17T00:13:00.892Z,107.80
2023-03-17T00:15:40.389Z,116.80
2023-03-17T00:18:33.822Z,109.80
2023-03-17T00:21:29.498Z,114.60
2023-03-17T00:24:21.526Z,107.50
2023-03-17T00:27:15.311Z,111.60
2023-03-17T00:30:11.958Z,102.90
2023-03-17T00:33:03.929Z,115.10
2023-03-17T00:35:58.540Z,118.60
2023-03-17T00:38:51.049Z,106.10
2023-03-17T00:41:43.630Z,115.40
2023-03-17T00:44:35.857Z,104.80
2023-03-17T00:47:28.253Z,113.70
2023-03-17T00:50:23.106Z,108.00
2023-03-17T00:53:16.693Z,104.00
2023-03-17T00:56:15.496Z,104.00
2023-03-17T00:59:17.548Z,99.30
2023-03-17T01:01:57.697Z,104.90
2023-03-17T01:04:59.731Z,114.80
2023-03-17T01:07:41.284Z,110.90
2023-03-17T01:10:25.935Z,110.20
2023-03-17T01:13:17.974Z,101.40
2023-03-17T01:16:12.336Z,109.50
2023-03-17T01:19:04.667Z,102.70
2023-03-17T01:21:56.658Z,107.40
2023-03-17T01:24:48.843Z,100.20
2023-03-17T01:27:41.683Z,96.90
2023-03-17T01:30:32.499Z,92.20
2023-03-17T01:33:25.551Z,94.50
2023-03-17T01:36:17.821Z,91.00
2023-03-17T01:39:09.800Z,85.60
2023-03-17T01:42:03.020Z,93.50
2023-03-17T01:45:02.793Z,77.10
2023-03-17T01:47:54.780Z,101.60
2023-03-17T01:50:48.300Z,108.10
2023-03-17T01:53:41.916Z,98.40
2023-03-17T01:56:23.168Z,93.00
2023-03-17T01:59:22.639Z,100.20
2023-03-17T02:02:19.624Z,95.10
2023-03-17T02:04:54.801Z,90.80
2023-03-17T02:07:38.598Z,92.80
2023-03-17T02:10:32.330Z,89.20
2023-03-17T02:13:08.392Z,88.20
2023-03-17T02:16:00.496Z,84.50
2023-03-17T02:18:52.714Z,86.30
2023-03-17T02:21:47.578Z,82.80
2023-03-17T02:24:43.282Z,95.80
2023-03-17T02:27:31.221Z,87.50
2023-03-17T02:30:25.004Z,91.50
2023-03-17T02:33:17.052Z,88.70
2023-03-17T02:35:59.547Z,76.20
2023-03-17T02:38:52.240Z,92.10
2023-03-17T02:41:27.340Z,94.70
2023-03-17T02:44:19.497Z,87.70
2023-03-17T02:47:11.741Z,93.00
2023-03-17T02:50:04.737Z,101.80
2023-03-17T02:52:57.108Z,92.20
2023-03-17T02:55:49.091Z,120.30
2023-03-17T02:58:41.092Z,134.10
2023-03-17T03:01:33.832Z,129.70
2023-03-17T03:04:08.863Z,119.60
2023-03-17T03:07:00.885Z,124.10
2023-03-17T03:09:35.836Z,122.20
2023-03-17T03:12:27.890Z,129.10
2023-03-17T03:15:20.880Z,128.70
2023-03-17T03:17:55.414Z,116.90
2023-03-17T03:20:28.021Z,126.10
2023-03-17T03:23:20.318Z,121.70
2023-03-17T03:26:12.583Z,127.10
2023-03-17T03:29:04.650Z,109.90
2023-03-17T03:31:56.673Z,120.90
2023-03-17T03:34:48.713Z,126.60
2023-03-17T03:37:29.538Z,97.90
2023-03-17T03:40:21.685Z,96.10
2023-03-17T03:43:16.130Z,100.70
2023-03-17T03:46:13.703Z,96.50
2023-03-17T03:49:05.786Z,94.30
2023-03-17T03:51:57.771Z,104.10
2023-03-17T03:54:32.952Z,93.40
2023-03-17T03:57:24.942Z,100.80
2023-03-17T04:00:18.963Z,106.20
2023-03-17T04:03:07.479Z,100.40
2023-03-17T04:05:47.138Z,101.80
2023-03-17T04:08:39.174Z,85.80
2023-03-17T04:11:31.573Z,96.60
2023-03-17T04:14:23.723Z,105.20
2023-03-17T04:16:58.534Z,95.70
2023-03-17T04:19:39.797Z,94.30
2023-03-17T04:22:31.882Z,94.50
2023-03-17T04:25:24.036Z,95.60
2023-03-17T04:28:16.024Z,89.00
2023-03-17T04:31:08.607Z,116.80
2023-03-17T04:33:50.890Z,118.50
2023-03-17T04:36:43.531Z,111.10
2023-03-17T04:39:20.896Z,110.30
2023-03-17T04:42:13.104Z,100.80
2023-03-17T04:45:05.463Z,102.70
2023-03-17T04:47:57.508Z,94.00
2023-03-17T04:50:39.106Z,93.70
2023-03-17T04:53:31.132Z,108.70
2023-03-17T04:56:23.262Z,92.40
2023-03-17T04:58:57.964Z,91.40
2023-03-17T05:01:49.982Z,89.00
2023-03-17T05:04:42.114Z,85.30
2023-03-17T05:07:34.358Z,87.10
2023-03-17T05:10:15.427Z,83.80
2023-03-17T05:15:32.092Z,65.30
2023-03-17T05:18:25.930Z,82.40
2023-03-17T05:21:18.087Z,79.40
2023-03-17T05:26:47.142Z,87.00
2023-03-17T05:29:28.172Z,81.80
2023-03-17T05:32:10.326Z,72.30
2023-03-17T05:35:03.590Z,79.00
2023-03-17T05:37:44.255Z,72.50
2023-03-17T05:40:36.948Z,75.10
2023-03-17T05:43:20.620Z,89.20
2023-03-17T05:46:12.687Z,87.00
2023-03-17T05:49:04.749Z,81.50
2023-03-17T05:51:47.800Z,86.40
2023-03-17T05:54:40.709Z,69.60
2023-03-17T05:57:22.937Z,75.10
2023-03-17T06:00:18.769Z,78.10
2023-03-17T06:03:10.995Z,75.50
2023-03-17T06:06:03.493Z,72.80
2023-03-17T06:08:55.556Z,79.70
2023-03-17T06:11:27.783Z,73.90
2023-03-17T06:14:19.838Z,71.60
2023-03-17T06:17:12.449Z,61.00
2023-03-17T06:20:05.458Z,70.20
2023-03-17T06:22:48.923Z,60.10
2023-03-17T06:25:30.622Z,59.10
2023-03-17T06:28:11.734Z,71.50
2023-03-17T06:31:07.069Z,66.90
2023-03-17T06:33:59.392Z,63.30
2023-03-17T06:36:51.601Z,57.50
2023-03-17T06:39:43.847Z,60.30
2023-03-17T06:42:19.152Z,57.20
2023-03-17T06:45:13.068Z,60.70
2023-03-17T06:48:05.165Z,54.10
2023-03-17T06:50:57.200Z,44.20
2023-03-17T06:53:49.197Z,40.60
2023-03-17T06:56:41.686Z,35.40
2023-03-17T06:59:16.238Z,33.30
2023-03-17T07:02:08.407Z,35.90
2023-03-17T07:05:00.776Z,26.40
2023-03-17T07:07:52.850Z,31.60
2023-03-17T07:10:45.867Z,31.50
2023-03-17T07:13:39.817Z,24.30
2023-03-17T07:16:21.365Z,29.80
2023-03-17T07:19:13.489Z,24.30
2023-03-17T07:22:06.065Z,23.90
2023-03-17T07:24:58.375Z,18.50
2023-03-17T07:27:50.497Z,25.40
2023-03-17T07:30:27.855Z,19.30
2023-03-17T07:33:21.283Z,21.90
2023-03-17T07:35:58.893Z,20.20
2023-03-17T07:38:51.074Z,22.80
2023-03-17T07:41:44.088Z,23.80
2023-03-17T07:44:37.612Z,20.50
2023-03-17T07:47:26.172Z,20.20
2023-03-17T07:50:18.615Z,25.70
2023-03-17T07:53:10.977Z,21.30
2023-03-17T07:56:03.279Z,16.20
2023-03-17T07:58:57.125Z,19.90
2023-03-17T08:01:49.309Z,21.10
2023-03-17T08:04:41.532Z,18.60
2023-03-17T08:07:33.596Z,23.90
2023-03-17T08:10:26.360Z,16.70
2023-03-17T08:13:19.029Z,13.10
2023-03-17T08:16:11.259Z,21.60
2023-03-17T08:19:04.330Z,16.40
2023-03-17T08:21:56.410Z,15.90
2023-03-17T08:24:37.002Z,18.50
2023-03-17T08:27:14.645Z,17.10
2023-03-17T08:29:51.094Z,16.00
2023-03-17T08:32:43.328Z,15.10
2023-03-17T08:35:35.899Z,14.60
2023-03-17T08:38:28.375Z,14.30
2023-03-17T08:41:23.708Z,14.00
2023-03-17T08:44:16.579Z,12.50
2023-03-17T08:47:08.946Z,14.70
2023-03-17T08:50:01.311Z,12.40
2023-03-17T08:52:42.488Z,8.80
2023-03-17T08:55:34.545Z,9.90
2023-03-17T08:58:27.376Z,9.80
2023-03-17T09:01:20.819Z,9.50
2023-03-17T09:07:02.280Z,11.40
2023-03-17T09:09:55.085Z,9.20
2023-03-17T09:12:47.445Z,7.00
2023-03-17T09:15:34.978Z,8.00
2023-03-17T09:18:23.931Z,8.50
2023-03-17T09:21:17.230Z,6.00
2023-03-17T09:24:10.395Z,7.60
2023-03-17T09:27:02.402Z,7.50
2023-03-17T09:29:54.482Z,7.40
2023-03-17T09:32:38.011Z,6.50
2023-03-17T09:35:15.456Z,7.60
2023-03-17T09:37:57.852Z,8.00
2023-03-17T09:40:57.140Z,7.40
2023-03-17T09:43:38.204Z,8.20
2023-03-17T09:46:40.748Z,7.40
2023-03-17T09:49:44.748Z,5.80
2023-03-17T09:52:29.020Z,6.00
2023-03-17T09:55:23.667Z,6.10
2023-03-17T09:58:15.668Z,8.20
2023-03-17T10:01:10.403Z,5.60
2023-03-17T10:04:02.643Z,6.50
2023-03-17T10:07:02.415Z,6.70
2023-03-17T10:10:03.002Z,5.70
2023-03-17T10:15:55.521Z,7.00
2023-03-17T10:18:54.245Z,5.10
2023-03-17T10:21:52.534Z,5.90
2023-03-17T10:24:30.857Z,5.00
2023-03-17T10:27:16.012Z,5.10
2023-03-17T10:30:16.289Z,10.00
2023-03-17T10:33:08.905Z,10.10
2023-03-17T10:36:10.499Z,6.70
2023-03-17T10:39:06.980Z,6.70
2023-03-17T10:42:01.439Z,5.00
2023-03-17T10:44:56.839Z,7.20
2023-03-17T10:47:51.056Z,5.40
2023-03-17T10:50:43.208Z,7.00
2023-03-17T10:53:43.292Z,5.80
2023-03-17T10:56:24.517Z,4.70
2023-03-17T11:04:45.434Z,5.10
2023-03-17T11:07:22.080Z,5.40
2023-03-17T11:10:23.838Z,6.20
2023-03-17T11:13:19.798Z,5.90
2023-03-17T11:16:23.282Z,6.30
2023-03-17T11:19:18.519Z,6.00
2023-03-17T11:22:33.348Z,5.50
2023-03-17T11:25:23.495Z,6.10
2023-03-17T11:28:21.777Z,7.00
2023-03-17T11:31:26.734Z,3.70
2023-03-17T11:34:27.285Z,4.80
2023-03-17T11:37:35.291Z,5.20
2023-03-17T11:40:34.832Z,6.70
2023-03-17T11:43:35.373Z,7.30
2023-03-17T11:46:33.797Z,4.40
2023-03-17T11:49:34.520Z,6.30
2023-03-17T11:52:12.489Z,6.00
2023-03-17T11:55:13.716Z,6.40
2023-03-17T11:58:10.502Z,6.00
2023-03-17T12:01:09.008Z,7.10
2023-03-17T12:04:12.204Z,7.70
2023-03-17T12:07:14.245Z,6.40
2023-03-17T12:10:04.497Z,8.00
2023-03-17T12:13:02.350Z,6.00
2023-03-17T12:15:58.777Z,6.00
2023-03-17T12:19:04.840Z,6.40
2023-03-17T12:22:00.464Z,6.90
2023-03-17T12:25:04.384Z,5.30
2023-03-17T12:27:45.481Z,7.30
2023-03-17T12:30:45.768Z,5.40
2023-03-17T12:33:44.786Z,7.10
2023-03-17T12:36:38.076Z,5.40
2023-03-17T12:39:33.975Z,5.40
2023-03-17T12:42:35.605Z,5.50
2023-03-17T12:45:55.889Z,8.00
2023-03-17T12:49:10.900Z,5.60
2023-03-17T12:52:13.417Z,5.80
2023-03-17T12:54:51.572Z,7.30
2023-03-17T12:57:46.079Z,8.70
2023-03-17T13:00:30.111Z,6.40
2023-03-17T13:03:20.541Z,6.30
2023-03-17T13:06:22.509Z,7.90
2023-03-17T13:09:35.833Z,7.20
2023-03-17T13:13:05.667Z,7.00
2023-03-17T13:16:04.456Z,7.20
2023-03-17T13:18:53.907Z,6.70
2023-03-17T13:21:50.556Z,6.40
2023-03-17T13:24:48.377Z,6.60
2023-03-17T13:27:49.954Z,4.40
2023-03-17T13:30:52.855Z,6.50
2023-03-17T13:33:33.285Z,5.80
2023-03-17T13:36:39.717Z,4.90
2023-03-17T13:45:22.688Z,5.30
2023-03-17T13:48:38.422Z,6.30
2023-03-17T13:51:20.660Z,5.90
2023-03-17T13:54:30.775Z,6.30
2023-03-17T13:57:28.936Z,5.80
2023-03-17T14:00:27.369Z,7.10
2023-03-17T14:03:13.253Z,5.90
2023-03-17T14:06:09.050Z,6.80
2023-03-17T14:08:53.257Z,5.00
2023-03-17T14:11:48.851Z,7.60
2023-03-17T14:14:48.030Z,4.20
2023-03-17T14:17:45.735Z,8.10
2023-03-17T14:20:25.963Z,7.40
2023-03-17T14:23:04.109Z,6.30
2023-03-17T14:25:58.084Z,8.40
2023-03-17T14:28:50.389Z,5.60
2023-03-17T14:31:43.126Z,5.40
2023-03-17T14:34:35.415Z,5.90
2023-03-17T14:37:13.955Z,5.20
2023-03-17T14:40:20.577Z,7.10
2023-03-17T14:43:02.679Z,6.30
2023-03-17T14:45:52.022Z,7.10
2023-03-17T14:48:48.538Z,8.00
2023-03-17T14:51:31.217Z,5.50
2023-03-17T14:54:25.714Z,6.80
2023-03-17T14:57:08.981Z,5.00
2023-03-17T15:00:04.219Z,7.30
2023-03-17T15:02:57.986Z,5.90
2023-03-17T15:05:40.477Z,6.50
2023-03-17T15:08:41.045Z,5.00
2023-03-17T15:11:41.575Z,4.50
2023-03-17T15:14:36.426Z,8.00
2023-03-17T15:17:21.738Z,4.20
2023-03-17T15:20:18.176Z,4.00
2023-03-17T15:23:19.171Z,8.90
2023-03-17T15:26:31.272Z,8.00
2023-03-17T15:29:23.291Z,6.20
2023-03-17T15:32:14.026Z,5.20
2023-03-17T15:34:46.036Z,7.40
2023-03-17T15:37:28.754Z,5.10
2023-03-17T15:40:21.653Z,5.50
2023-03-17T15:46:01.341Z,8.60
2023-03-17T15:48:53.475Z,6.50
2023-03-17T15:51:45.565Z,8.00
2023-03-17T15:54:37.532Z,6.50
2023-03-17T15:57:29.547Z,6.00
2023-03-17T16:00:17.906Z,7.40
2023-03-17T16:03:17.804Z,5.50
2023-03-17T16:06:17.513Z,5.40
2023-03-17T16:09:17.877Z,7.40
2023-03-17T16:12:12.053Z,6.70
2023-03-17T16:15:13.162Z,8.30
2023-03-17T16:18:18.818Z,8.60
2023-03-17T16:21:10.998Z,9.80
2023-03-17T16:24:03.109Z,10.20
2023-03-17T16:26:55.614Z,9.90
2023-03-17T16:29:27.413Z,10.70
2023-03-17T16:32:19.520Z,12.90
2023-03-17T16:35:17.391Z,10.20
2023-03-17T16:38:14.340Z,12.10
2023-03-17T16:41:14.178Z,11.60
2023-03-17T16:44:08.097Z,18.90
2023-03-17T16:47:00.494Z,14.40
2023-03-17T16:49:43.746Z,17.00
2023-03-17T16:52:35.743Z,20.40
2023-03-17T16:55:29.880Z,18.90
2023-03-17T16:58:24.256Z,18.20
2023-03-17T17:01:20.572Z,18.50
2023-03-17T17:03:56.466Z,17.90
2023-03-17T17:06:48.453Z,18.30
2023-03-17T17:09:40.519Z,18.80
2023-03-17T17:12:32.479Z,19.90
2023-03-17T17:15:16.618Z,24.20
2023-03-17T17:18:14.127Z,23.40
2023-03-17T17:21:07.278Z,25.50
2023-03-17T17:23:59.679Z,20.00
2023-03-17T17:26:51.750Z,19.60
2023-03-17T17:29:26.721Z,22.20
2023-03-17T17:32:19.632Z,21.30
2023-03-17T17:35:12.965Z,21.30
2023-03-17T17:37:55.408Z,21.60
2023-03-17T17:40:48.777Z,23.70
2023-03-17T17:43:41.199Z,25.00
2023-03-17T17:46:33.398Z,26.60
2023-03-17T17:49:26.129Z,24.00
2023-03-17T17:52:18.703Z,26.40
2023-03-17T17:55:11.237Z,22.90
2023-03-17T17:58:03.711Z,26.10
2023-03-17T18:00:57.429Z,27.40
2023-03-17T18:03:49.726Z,27.70
2023-03-17T18:06:24.437Z,27.00
2023-03-17T18:09:01.773Z,27.10
2023-03-17T18:11:53.844Z,23.30
2023-03-17T18:14:45.939Z,26.90
2023-03-17T18:17:38.009Z,35.70
2023-03-17T18:20:21.518Z,30.20
2023-03-17T18:23:13.594Z,32.60
2023-03-17T18:26:07.105Z,33.20
2023-03-17T18:28:42.427Z,34.50
2023-03-17T18:31:39.425Z,38.00
2023-03-17T18:34:35.165Z,36.00
2023-03-17T18:40:32.150Z,32.60
2023-03-17T18:43:24.212Z,33.30
2023-03-17T18:46:16.415Z,34.10
2023-03-17T18:49:09.375Z,35.90
2023-03-17T18:52:01.653Z,29.10
2023-03-17T18:54:53.706Z,26.50
2023-03-17T18:57:46.576Z,31.00
2023-03-17T19:00:38.763Z,30.20
2023-03-17T19:03:32.097Z,31.90
2023-03-17T19:06:25.299Z,28.10
2023-03-17T19:09:17.420Z,31.70
2023-03-17T19:12:09.904Z,39.10
2023-03-17T19:15:01.919Z,34.60
2023-03-17T19:17:53.963Z,20.70
2023-03-17T19:20:46.421Z,21.10
2023-03-17T19:23:39.118Z,24.40
2023-03-17T19:26:33.370Z,21.70
2023-03-17T19:29:27.646Z,26.60
2023-03-17T19:32:00.496Z,30.30
2023-03-17T19:34:41.710Z,30.90
2023-03-17T19:37:34.013Z,26.80
2023-03-17T19:40:26.084Z,27.50
2023-03-17T19:43:36.714Z,30.50
2023-03-17T19:46:30.728Z,29.60
2023-03-17T19:49:22.967Z,25.20
2023-03-17T19:52:00.424Z,23.10
2023-03-17T19:54:52.425Z,27.40
2023-03-17T19:57:44.551Z,23.30
2023-03-17T20:00:22.479Z,25.70
2023-03-17T20:03:15.157Z,25.20
2023-03-17T20:06:07.891Z,26.70
2023-03-17T20:09:01.019Z,27.80
2023-03-17T20:11:53.526Z,25.80
2023-03-17T20:14:45.658Z,32.20
2023-03-17T20:17:37.846Z,32.10
2023-03-17T20:20:30.061Z,40.20
2023-03-17T20:23:12.827Z,44.20
2023-03-17T20:26:05.106Z,36.80
2023-03-17T20:28:57.113Z,38.90
2023-03-17T20:31:49.113Z,36.20
2023-03-17T20:34:31.822Z,37.10
2023-03-17T20:37:07.637Z,35.80
2023-03-17T20:40:01.492Z,40.90
2023-03-17T20:42:53.612Z,42.50
2023-03-17T20:45:45.673Z,36.70
2023-03-17T20:48:37.827Z,37.90
2023-03-17T20:51:30.086Z,41.20
2023-03-17T20:54:23.199Z,37.60
2023-03-17T20:57:16.031Z,37.40
2023-03-17T21:00:10.786Z,33.90
2023-03-17T21:03:02.776Z,35.80
2023-03-17T21:05:55.813Z,39.20
2023-03-17T21:08:47.967Z,37.00
2023-03-17T21:11:40.196Z,37.20
2023-03-17T21:14:14.053Z,38.60
2023-03-17T21:17:06.524Z,40.80
2023-03-17T21:19:58.665Z,38.40
2023-03-17T21:22:36.282Z,41.20
2023-03-17T21:25:28.297Z,42.60
2023-03-17T21:28:06.076Z,44.90
2023-03-17T21:30:58.022Z,48.40
2023-03-17T21:33:39.111Z,39.10
2023-03-17T21:36:31.208Z,46.50
2023-03-17T21:39:12.511Z,50.20
2023-03-17T21:41:55.577Z,40.80
2023-03-17T21:44:48.276Z,44.00
2023-03-17T21:47:40.895Z,39.30
2023-03-17T21:50:18.144Z,45.10
2023-03-17T21:52:53.063Z,47.00
2023-03-17T21:55:27.976Z,47.60
2023-03-17T21:58:21.209Z,48.10
2023-03-17T22:01:14.270Z,38.50
2023-03-17T22:03:54.926Z,42.60
2023-03-17T22:06:29.699Z,41.30
2023-03-17T22:09:01.630Z,44.70
2023-03-17T22:11:53.558Z,44.20
2023-03-17T22:14:45.521Z,46.30
2023-03-17T22:17:23.213Z,41.40
2023-03-17T22:20:15.772Z,41.20
2023-03-17T22:23:07.910Z,50.60
2023-03-17T22:26:00.639Z,40.40
2023-03-17T22:28:53.077Z,35.70
2023-03-17T22:31:53.523Z,39.30
2023-03-17T22:34:45.630Z,44.20
2023-03-17T22:37:27.975Z,44.30
2023-03-17T22:40:20.650Z,43.10
2023-03-17T22:43:12.669Z,37.60
2023-03-17T22:46:04.967Z,51.70
2023-03-17T22:48:57.288Z,56.50
2023-03-17T22:51:31.878Z,58.30
2023-03-17T22:54:24.259Z,66.30
2023-03-17T22:57:16.214Z,70.10
2023-03-17T23:00:14.812Z,65.40
2023-03-17T23:03:08.861Z,73.90
2023-03-17T23:06:03.418Z,60.60
2023-03-17T23:08:40.368Z,63.90
2023-03-17T23:11:25.469Z,61.40
2023-03-17T23:14:07.413Z,82.20
2023-03-17T23:16:59.506Z,75.10
2023-03-17T23:19:51.782Z,61.40
2023-03-17T23:22:26.697Z,68.30
2023-03-17T23:25:04.872Z,67.30
2023-03-17T23:27:56.903Z,61.90
2023-03-17T23:30:49.203Z,75.10
2023-03-17T23:33:41.217Z,83.30
2023-03-17T23:36:18.063Z,68.20
2023-03-17T23:39:10.513Z,67.70
2023-03-17T23:42:04.086Z,68.20
2023-03-17T23:44:56.273Z,67.50
2023-03-17T23:47:28.265Z,70.80
2023-03-17T23:50:03.675Z,67.70
2023-03-17T23:52:36.252Z,65.00
2023-03-17T23:55:14.975Z,72.20
2023-03-17T23:57:51.138Z,69.30
